createdAt,value
2019-02-10T00:00:39.319Z,14.33
2019-02-10T00:03:07.865Z,19.33
2019-02-10T00:05:36.423Z,18.43
2019-02-10T00:08:05.033Z,15.00
2019-02-10T00:10:33.511Z,18.80
2019-02-10T00:13:32.706Z,20.33
2019-02-10T00:16:03.469Z,22.37
2019-02-10T00:18:32.013Z,15.30
2019-02-10T00:21:00.860Z,24.10
2019-02-10T00:23:29.345Z,15.40
2019-02-10T00:25:57.923Z,15.17
2019-02-10T00:28:26.724Z,20.83
2019-02-10T00:30:55.267Z,19.97
2019-02-10T00:33:23.750Z,20.20
2019-02-10T00:35:52.278Z,17.20
2019-02-10T00:38:20.837Z,20.53
2019-02-10T00:40:49.682Z,16.20
2019-02-10T00:43:18.414Z,18.20
2019-02-10T00:45:46.896Z,23.30
2019-02-10T00:48:15.638Z,16.33
2019-02-10T00:50:44.157Z,18.17
2019-02-10T00:53:12.725Z,39.17
2019-02-10T00:55:41.310Z,21.23
2019-02-10T00:58:09.854Z,17.67
2019-02-10T01:00:38.672Z,20.10
2019-02-10T01:03:07.320Z,20.37
2019-02-10T01:05:35.805Z,17.30
2019-02-10T01:08:04.648Z,18.00
2019-02-10T01:10:33.327Z,13.50
2019-02-10T01:13:02.212Z,22.50
2019-02-10T01:15:30.837Z,20.10
2019-02-10T01:17:59.407Z,24.20
2019-02-10T01:20:28.093Z,14.47
2019-02-10T01:22:56.605Z,18.10
2019-02-10T01:25:25.485Z,13.90
2019-02-10T01:27:54.126Z,27.80
2019-02-10T01:30:22.765Z,20.37
2019-02-10T01:32:51.417Z,17.40
2019-02-10T01:35:19.986Z,17.73
2019-02-10T01:37:48.458Z,17.77
2019-02-10T01:40:17.015Z,28.17
2019-02-10T01:42:45.995Z,16.83
2019-02-10T01:45:14.625Z,19.60
2019-02-10T01:47:43.290Z,23.10
2019-02-10T01:50:12.000Z,16.00
2019-02-10T01:52:40.585Z,16.40
2019-02-10T01:55:13.562Z,21.70
2019-02-10T01:57:42.093Z,14.70
2019-02-10T02:00:16.524Z,14.60
2019-02-10T02:02:45.140Z,17.27
2019-02-10T02:05:13.772Z,17.57
2019-02-10T02:07:42.597Z,19.77
2019-02-10T02:10:12.889Z,12.30
2019-02-10T02:12:41.739Z,19.43
2019-02-10T02:15:13.252Z,18.43
2019-02-10T02:17:41.686Z,17.13
2019-02-10T02:20:11.758Z,20.43
2019-02-10T02:22:40.392Z,20.10
2019-02-10T02:25:10.438Z,15.30
2019-02-10T02:27:39.101Z,19.67
2019-02-10T02:30:12.623Z,16.40
2019-02-10T02:32:41.219Z,22.70
2019-02-10T02:35:10.047Z,15.63
2019-02-10T02:37:38.665Z,16.83
2019-02-10T02:40:09.411Z,20.30
2019-02-10T02:42:38.069Z,24.60
2019-02-10T02:45:09.515Z,16.57
2019-02-10T02:47:38.076Z,19.20
2019-02-10T02:50:08.471Z,19.30
2019-02-10T02:52:37.005Z,23.23
2019-02-10T02:55:07.296Z,19.57
2019-02-10T02:57:35.861Z,28.40
2019-02-10T03:00:05.486Z,15.07
2019-02-10T03:02:34.342Z,23.97
2019-02-10T03:05:02.898Z,16.00
2019-02-10T03:07:31.356Z,27.03
2019-02-10T03:09:59.896Z,15.80
2019-02-10T03:12:28.464Z,16.00
2019-02-10T03:14:57.278Z,15.50
2019-02-10T03:17:25.837Z,24.27
2019-02-10T03:19:54.354Z,20.50
2019-02-10T03:22:23.131Z,24.43
2019-02-10T03:24:52.079Z,16.03
2019-02-10T03:27:20.709Z,14.40
2019-02-10T03:29:49.260Z,11.70
2019-02-10T03:32:17.927Z,18.27
2019-02-10T03:34:46.430Z,16.80
2019-02-10T03:37:15.158Z,18.07
2019-02-10T03:39:43.729Z,14.90
2019-02-10T03:42:12.330Z,18.30
2019-02-10T03:44:40.962Z,18.23
2019-02-10T03:47:09.545Z,14.23
2019-02-10T03:49:38.004Z,19.03
2019-02-10T03:52:06.475Z,14.83
2019-02-10T03:54:35.089Z,19.13
2019-02-10T03:57:03.856Z,13.30
2019-02-10T03:59:32.574Z,22.87
2019-02-10T04:02:01.070Z,15.47
2019-02-10T04:04:29.618Z,15.17
2019-02-10T04:06:58.209Z,23.20
2019-02-10T04:09:26.762Z,22.97
2019-02-10T04:11:55.308Z,22.30
2019-02-10T04:14:23.886Z,16.43
2019-02-10T04:16:52.835Z,15.80
2019-02-10T04:19:21.414Z,16.90
2019-02-10T04:21:50.003Z,15.90
2019-02-10T04:24:18.490Z,15.00
2019-02-10T04:26:47.192Z,19.57
2019-02-10T04:29:15.865Z,13.30
2019-02-10T04:31:44.367Z,14.70
2019-02-10T04:34:12.959Z,12.37
2019-02-10T04:36:41.455Z,17.57
2019-02-10T04:39:10.058Z,14.80
2019-02-10T04:41:38.561Z,13.37
2019-02-10T04:44:07.211Z,17.67
2019-02-10T04:46:35.730Z,24.67
2019-02-10T04:49:04.280Z,20.30
2019-02-10T04:51:33.007Z,18.80
2019-02-10T04:54:01.797Z,10.77
2019-02-10T04:56:30.629Z,18.97
2019-02-10T04:58:59.130Z,17.53
2019-02-10T05:01:27.632Z,16.43
2019-02-10T05:03:56.438Z,20.03
2019-02-10T05:06:25.085Z,18.13
2019-02-10T05:08:53.505Z,15.30
2019-02-10T05:11:22.204Z,20.63
2019-02-10T05:13:50.948Z,15.03
2019-02-10T05:16:19.482Z,13.37
2019-02-10T05:18:48.046Z,22.90
2019-02-10T05:21:16.518Z,23.37
2019-02-10T05:23:45.011Z,21.83
2019-02-10T05:26:13.448Z,19.33
2019-02-10T05:28:42.339Z,19.00
2019-02-10T05:31:10.883Z,21.53
2019-02-10T05:33:39.519Z,23.87
2019-02-10T05:36:08.380Z,14.57
2019-02-10T05:38:37.433Z,24.70
2019-02-10T05:41:06.097Z,17.50
2019-02-10T05:43:34.876Z,17.87
2019-02-10T05:46:03.511Z,15.60
2019-02-10T05:48:32.082Z,17.97
2019-02-10T05:51:00.553Z,36.43
2019-02-10T05:53:29.006Z,20.13
2019-02-10T05:55:57.551Z,16.40
2019-02-10T05:58:27.505Z,21.63
2019-02-10T06:00:59.177Z,19.33
2019-02-10T06:03:28.104Z,21.13
2019-02-10T06:05:56.672Z,18.27
2019-02-10T06:08:25.192Z,46.73
2019-02-10T06:10:53.950Z,14.50
2019-02-10T06:13:22.614Z,27.27
2019-02-10T06:15:51.099Z,25.67
2019-02-10T06:18:19.635Z,24.63
2019-02-10T06:20:48.157Z,15.20
2019-02-10T06:23:16.629Z,14.77
2019-02-10T06:25:45.062Z,16.83
2019-02-10T06:28:13.941Z,21.30
2019-02-10T06:30:42.512Z,22.50
2019-02-10T06:33:11.365Z,15.23
2019-02-10T06:35:39.901Z,23.50
2019-02-10T06:38:08.368Z,15.13
2019-02-10T06:40:37.024Z,22.53
2019-02-10T06:43:05.436Z,15.40
2019-02-10T06:45:33.882Z,21.50
2019-02-10T06:48:02.469Z,15.17
2019-02-10T06:50:31.038Z,16.33
2019-02-10T06:52:59.693Z,17.83
2019-02-10T06:55:28.284Z,23.67
2019-02-10T06:57:56.940Z,15.73
2019-02-10T07:00:27.171Z,17.40
2019-02-10T07:03:28.045Z,17.00
2019-02-10T07:05:56.731Z,25.40
2019-02-10T07:08:30.542Z,19.50
2019-02-10T07:10:55.763Z,20.10
2019-02-10T07:13:45.081Z,14.53
2019-02-10T07:16:43.728Z,20.13
2019-02-10T07:19:40.394Z,16.33
2019-02-10T07:22:34.340Z,27.23
2019-02-10T07:25:20.984Z,24.57
2019-02-10T07:28:01.415Z,16.10
2019-02-10T07:30:51.114Z,19.13
2019-02-10T07:33:33.357Z,23.13
2019-02-10T07:36:31.807Z,18.53
2019-02-10T07:39:18.330Z,20.10
2019-02-10T07:42:10.650Z,25.77
2019-02-10T07:44:51.227Z,23.77
2019-02-10T07:47:34.025Z,21.33
2019-02-10T07:50:11.602Z,20.20
2019-02-10T07:52:59.628Z,22.77
2019-02-10T07:56:04.473Z,17.07
2019-02-10T07:58:51.075Z,15.53
2019-02-10T08:01:22.679Z,15.00
2019-02-10T08:04:00.194Z,28.77
2019-02-10T08:06:31.799Z,16.00
2019-02-10T08:09:12.609Z,21.60
2019-02-10T08:11:52.860Z,23.30
2019-02-10T08:14:33.063Z,22.57
2019-02-10T08:17:19.559Z,24.80
2019-02-10T08:19:51.411Z,21.50
2019-02-10T08:22:42.632Z,14.30
2019-02-10T08:25:28.939Z,20.47
2019-02-10T08:28:21.245Z,13.50
2019-02-10T08:30:52.749Z,17.07
2019-02-10T08:33:30.562Z,17.23
2019-02-10T08:36:14.170Z,21.53
2019-02-10T08:39:00.597Z,12.17
2019-02-10T08:41:41.160Z,18.87
2019-02-10T08:44:21.906Z,27.70
2019-02-10T08:47:14.451Z,26.63
2019-02-10T08:50:01.533Z,22.10
2019-02-10T08:52:51.701Z,21.33
2019-02-10T08:55:15.657Z,33.10
2019-02-10T08:57:44.396Z,22.73
2019-02-10T09:00:12.902Z,29.00
2019-02-10T09:02:41.662Z,35.57
2019-02-10T09:05:10.335Z,23.63
2019-02-10T09:07:38.821Z,20.63
2019-02-10T09:10:12.555Z,22.10
2019-02-10T09:12:41.503Z,23.70
2019-02-10T09:15:12.072Z,21.60
2019-02-10T09:17:40.607Z,18.13
2019-02-10T09:20:11.167Z,21.83
2019-02-10T09:22:39.771Z,26.73
2019-02-10T09:25:10.723Z,18.57
2019-02-10T09:27:39.244Z,20.13
2019-02-10T09:30:11.108Z,25.77
2019-02-10T09:32:39.694Z,21.80
2019-02-10T09:35:09.235Z,26.00
2019-02-10T09:37:37.879Z,28.83
2019-02-10T09:40:11.639Z,21.37
2019-02-10T09:42:40.268Z,22.63
2019-02-10T09:45:11.255Z,22.73
2019-02-10T09:47:39.878Z,27.73
2019-02-10T09:50:14.130Z,25.50
2019-02-10T09:52:42.655Z,17.63
2019-02-10T09:55:11.355Z,35.50
2019-02-10T09:57:41.286Z,22.60
2019-02-10T10:00:14.323Z,17.80
2019-02-10T10:02:43.035Z,17.77
2019-02-10T10:05:13.245Z,18.60
2019-02-10T10:07:41.823Z,33.50
2019-02-10T10:10:12.570Z,33.60
2019-02-10T10:12:41.020Z,28.17
2019-02-10T10:15:12.469Z,34.20
2019-02-10T10:17:41.113Z,21.77
2019-02-10T10:20:15.404Z,17.73
2019-02-10T10:22:43.970Z,31.20
2019-02-10T10:25:12.612Z,24.93
2019-02-10T10:27:41.223Z,21.90
2019-02-10T10:30:18.059Z,25.47
2019-02-10T10:32:46.512Z,20.17
2019-02-10T10:35:15.132Z,30.30
2019-02-10T10:37:44.195Z,29.23
2019-02-10T10:40:12.694Z,25.77
2019-02-10T10:42:41.296Z,29.47
2019-02-10T10:45:14.643Z,30.10
2019-02-10T10:47:43.129Z,22.67
2019-02-10T10:50:13.113Z,21.63
2019-02-10T10:52:41.651Z,17.40
2019-02-10T10:55:11.854Z,17.10
2019-02-10T10:57:40.562Z,19.27
2019-02-10T11:00:14.183Z,21.33
2019-02-10T11:02:42.781Z,18.83
2019-02-10T11:05:11.757Z,25.97
2019-02-10T11:07:40.216Z,21.20
2019-02-10T11:10:11.014Z,17.40
2019-02-10T11:12:39.843Z,21.70
2019-02-10T11:15:13.777Z,19.20
2019-02-10T11:17:42.596Z,23.37
2019-02-10T11:20:11.970Z,23.47
2019-02-10T11:22:40.529Z,27.70
2019-02-10T11:25:10.334Z,26.03
2019-02-10T11:27:38.874Z,23.93
2019-02-10T11:30:14.866Z,19.57
2019-02-10T11:32:43.381Z,17.37
2019-02-10T11:35:12.079Z,19.50
2019-02-10T11:37:40.717Z,17.43
2019-02-10T11:40:13.543Z,21.90
2019-02-10T11:42:42.195Z,15.00
2019-02-10T11:45:12.756Z,24.63
2019-02-10T11:47:41.247Z,26.60
2019-02-10T11:50:11.900Z,26.83
2019-02-10T11:52:40.449Z,18.13
2019-02-10T11:55:10.515Z,16.93
2019-02-10T11:57:39.086Z,16.80
2019-02-10T12:00:10.907Z,22.33
2019-02-10T12:02:40.606Z,17.63
2019-02-10T12:05:10.571Z,14.83
2019-02-10T12:07:39.043Z,15.00
2019-02-10T12:10:14.752Z,11.80
2019-02-10T12:12:43.488Z,18.23
2019-02-10T12:15:14.767Z,21.20
2019-02-10T12:17:43.273Z,15.27
2019-02-10T12:20:13.501Z,14.57
2019-02-10T12:22:49.603Z,17.80
2019-02-10T12:25:12.463Z,16.33
2019-02-10T12:27:41.082Z,15.33
2019-02-10T12:30:14.240Z,15.90
2019-02-10T12:32:43.103Z,13.90
2019-02-10T12:35:13.019Z,13.97
2019-02-10T12:37:41.685Z,12.60
2019-02-10T12:40:12.303Z,16.17
2019-02-10T12:42:41.163Z,11.97
2019-02-10T12:45:12.326Z,22.90
2019-02-10T12:47:42.587Z,15.10
2019-02-10T12:50:13.356Z,14.87
2019-02-10T12:52:44.238Z,12.23
2019-02-10T12:55:13.225Z,11.73
2019-02-10T12:57:42.003Z,12.10
2019-02-10T13:00:15.908Z,14.90
2019-02-10T13:02:44.602Z,13.60
2019-02-10T13:05:13.239Z,12.10
2019-02-10T13:07:42.760Z,11.73
2019-02-10T13:10:17.634Z,15.13
2019-02-10T13:12:45.753Z,12.33
2019-02-10T13:15:15.010Z,12.77
2019-02-10T13:17:43.771Z,12.63
2019-02-10T13:20:13.193Z,13.70
2019-02-10T13:22:42.073Z,12.07
2019-02-10T13:25:11.676Z,15.97
2019-02-10T13:27:40.991Z,15.50
2019-02-10T13:30:12.498Z,13.90
2019-02-10T13:32:41.088Z,14.57
2019-02-10T13:35:09.566Z,17.50
2019-02-10T13:37:38.135Z,22.97
2019-02-10T13:40:18.358Z,12.33
2019-02-10T13:42:46.906Z,15.27
2019-02-10T13:45:15.490Z,12.70
2019-02-10T13:47:44.184Z,16.07
2019-02-10T13:50:18.021Z,14.63
2019-02-10T13:52:46.295Z,12.53
2019-02-10T13:55:15.978Z,13.57
2019-02-10T13:57:44.723Z,16.47
2019-02-10T14:00:15.765Z,12.47
2019-02-10T14:02:44.404Z,15.47
2019-02-10T14:05:13.340Z,15.07
2019-02-10T14:07:42.049Z,20.30
2019-02-10T14:10:16.090Z,12.27
2019-02-10T14:12:44.795Z,13.53
2019-02-10T14:15:17.387Z,13.80
2019-02-10T14:17:45.867Z,14.47
2019-02-10T14:20:16.124Z,12.93
2019-02-10T14:22:44.656Z,13.13
2019-02-10T14:25:13.314Z,11.53
2019-02-10T14:27:41.948Z,12.43
2019-02-10T14:30:23.553Z,16.27
2019-02-10T14:32:52.347Z,12.23
2019-02-10T14:35:20.811Z,13.73
2019-02-10T14:37:49.288Z,11.20
2019-02-10T14:40:17.862Z,14.40
2019-02-10T14:42:46.559Z,11.73
2019-02-10T14:45:16.011Z,12.67
2019-02-10T14:47:44.828Z,13.23
2019-02-10T14:50:20.350Z,14.37
2019-02-10T14:52:49.245Z,11.10
2019-02-10T14:55:18.773Z,13.37
2019-02-10T14:57:47.463Z,11.50
2019-02-10T15:00:16.686Z,16.73
2019-02-10T15:02:45.360Z,11.20
2019-02-10T15:05:14.019Z,13.33
2019-02-10T15:07:42.812Z,15.20
2019-02-10T15:10:21.657Z,12.03
2019-02-10T15:12:50.469Z,14.80
2019-02-10T15:15:19.026Z,11.40
2019-02-10T15:17:47.578Z,12.13
2019-02-10T15:20:16.270Z,15.83
2019-02-10T15:22:44.911Z,14.17
2019-02-10T15:25:14.429Z,11.13
2019-02-10T15:27:42.962Z,12.90
2019-02-10T15:30:13.136Z,11.20
2019-02-10T15:32:41.650Z,12.50
2019-02-10T15:35:10.221Z,13.57
2019-02-10T15:37:39.111Z,10.53
2019-02-10T15:40:10.817Z,12.63
2019-02-10T15:42:39.700Z,12.73
2019-02-10T15:45:11.331Z,13.93
2019-02-10T15:47:39.875Z,20.13
2019-02-10T15:50:13.893Z,14.83
2019-02-10T15:52:42.378Z,21.80
2019-02-10T15:55:14.933Z,12.13
2019-02-10T15:57:43.582Z,14.03
2019-02-10T16:00:28.620Z,17.30
2019-02-10T16:02:57.161Z,14.30
2019-02-10T16:05:25.600Z,21.50
2019-02-10T16:07:54.380Z,15.37
2019-02-10T16:10:23.081Z,15.63
2019-02-10T16:12:51.733Z,14.60
2019-02-10T16:15:20.819Z,14.33
2019-02-10T16:17:49.915Z,13.07
2019-02-10T16:20:18.740Z,14.07
2019-02-10T16:22:47.195Z,13.30
2019-02-10T16:25:15.749Z,14.73
2019-02-10T16:27:44.447Z,13.97
2019-02-10T16:30:17.975Z,20.47
2019-02-10T16:32:50.081Z,15.27
2019-02-10T16:35:18.705Z,14.80
2019-02-10T16:37:47.340Z,13.83
2019-02-10T16:40:24.355Z,13.10
2019-02-10T16:42:54.884Z,16.13
2019-02-10T16:45:23.957Z,11.60
2019-02-10T16:47:53.138Z,13.10
2019-02-10T16:50:21.812Z,11.27
2019-02-10T16:52:50.421Z,13.33
2019-02-10T16:55:21.391Z,14.17
2019-02-10T16:57:50.001Z,20.67
2019-02-10T17:00:18.646Z,13.13
2019-02-10T17:02:47.277Z,16.77
2019-02-10T17:05:15.845Z,12.50
2019-02-10T17:07:44.429Z,11.60
2019-02-10T17:10:20.206Z,13.33
2019-02-10T17:12:48.811Z,12.10
2019-02-10T17:15:17.444Z,12.70
2019-02-10T17:17:46.434Z,12.90
2019-02-10T17:20:15.947Z,12.50
2019-02-10T17:22:44.554Z,17.70
2019-02-10T17:25:27.702Z,12.23
2019-02-10T17:27:56.210Z,13.43
2019-02-10T17:30:24.736Z,12.57
2019-02-10T17:32:53.571Z,12.57
2019-02-10T17:35:22.174Z,14.80
2019-02-10T17:37:50.856Z,11.37
2019-02-10T17:40:22.494Z,15.67
2019-02-10T17:42:50.990Z,14.00
2019-02-10T17:45:19.590Z,16.90
2019-02-10T17:47:48.097Z,13.40
2019-02-10T17:50:16.659Z,11.70
2019-02-10T17:52:45.203Z,10.50
2019-02-10T17:55:13.720Z,10.20
2019-02-10T17:57:42.335Z,13.30
2019-02-10T18:00:18.571Z,10.10
2019-02-10T18:02:47.453Z,10.73
2019-02-10T18:05:16.099Z,11.50
2019-02-10T18:07:44.671Z,11.10
2019-02-10T18:10:15.524Z,11.33
2019-02-10T18:12:44.167Z,11.83
2019-02-10T18:15:14.319Z,12.80
2019-02-10T18:17:56.362Z,13.90
2019-02-10T18:20:26.478Z,11.43
2019-02-10T18:23:08.432Z,10.70
2019-02-10T18:25:41.695Z,11.30
2019-02-10T18:28:12.018Z,9.53
2019-02-10T18:30:50.906Z,11.90
2019-02-10T18:33:24.302Z,12.10
2019-02-10T18:36:00.454Z,11.00
2019-02-10T18:38:30.580Z,14.20
2019-02-10T18:41:07.077Z,12.17
2019-02-10T18:43:37.229Z,10.47
2019-02-10T18:46:13.300Z,19.70
2019-02-10T18:48:43.406Z,13.80
2019-02-10T18:51:13.764Z,16.60
2019-02-10T18:53:46.537Z,12.23
2019-02-10T18:56:31.495Z,14.13
2019-02-10T18:59:04.694Z,12.40
2019-02-10T19:01:34.814Z,11.20
2019-02-10T19:04:05.189Z,13.03
2019-02-10T19:06:50.151Z,12.70
2019-02-10T19:09:36.375Z,10.70
2019-02-10T19:12:15.581Z,12.03
2019-02-10T19:14:45.716Z,10.37
2019-02-10T19:17:34.016Z,9.80
2019-02-10T19:20:04.237Z,9.63
2019-02-10T19:22:46.327Z,11.30
2019-02-10T19:25:22.560Z,9.83
2019-02-10T19:28:08.567Z,12.53
2019-02-10T19:30:41.466Z,13.37
2019-02-10T19:33:14.590Z,11.40
2019-02-10T19:35:44.889Z,14.40
2019-02-10T19:38:21.072Z,10.63
2019-02-10T19:41:08.930Z,10.03
2019-02-10T19:43:41.753Z,9.17
2019-02-10T19:46:11.940Z,10.67
2019-02-10T19:48:51.130Z,13.10
2019-02-10T19:51:24.382Z,11.43
2019-02-10T19:54:12.295Z,9.83
2019-02-10T19:56:58.295Z,13.00
2019-02-10T19:59:40.612Z,10.57
2019-02-10T20:02:26.766Z,14.97
2019-02-10T20:04:56.860Z,11.10
2019-02-10T20:07:44.185Z,11.00
2019-02-10T20:10:14.493Z,9.93
2019-02-10T20:12:47.081Z,10.30
2019-02-10T20:15:17.250Z,10.10
2019-02-10T20:17:50.249Z,10.20
2019-02-10T20:20:26.210Z,9.90
2019-02-10T20:23:11.252Z,9.80
2019-02-10T20:25:41.616Z,11.03
2019-02-10T20:28:20.651Z,10.57
2019-02-10T20:30:50.980Z,9.77
2019-02-10T20:33:21.370Z,11.97
2019-02-10T20:35:54.498Z,10.30
2019-02-10T20:38:27.698Z,10.83
2019-02-10T20:41:00.332Z,9.33
2019-02-10T20:43:30.549Z,10.60
2019-02-10T20:46:00.772Z,9.50
2019-02-10T20:48:47.103Z,9.90
2019-02-10T20:51:17.261Z,14.67
2019-02-10T20:53:47.546Z,9.17
2019-02-10T20:56:23.488Z,14.13
2019-02-10T20:58:59.550Z,9.30
2019-02-10T21:01:38.585Z,9.60
2019-02-10T21:04:11.531Z,9.00
2019-02-10T21:06:41.773Z,10.07
2019-02-10T21:09:21.004Z,9.50
2019-02-10T21:12:03.654Z,9.70
2019-02-10T21:14:50.050Z,9.37
2019-02-10T21:17:20.243Z,9.10
2019-02-10T21:19:50.444Z,9.03
2019-02-10T21:22:29.527Z,9.10
2019-02-10T21:25:08.448Z,8.80
2019-02-10T21:27:56.626Z,8.70
2019-02-10T21:30:38.671Z,9.20
2019-02-10T21:33:14.936Z,10.20
2019-02-10T21:35:47.556Z,8.47
2019-02-10T21:38:26.466Z,8.60
2019-02-10T21:41:05.639Z,8.40
2019-02-10T21:43:41.368Z,9.33
2019-02-10T21:46:20.714Z,8.80
2019-02-10T21:48:50.935Z,8.50
2019-02-10T21:51:19.508Z,9.10
2019-02-10T21:53:48.180Z,8.40
2019-02-10T21:56:16.787Z,8.40
2019-02-10T21:58:45.412Z,8.20
2019-02-10T22:01:13.997Z,8.40
2019-02-10T22:03:42.543Z,8.30
2019-02-10T22:06:11.230Z,8.10
2019-02-10T22:08:39.802Z,8.60
2019-02-10T22:11:08.364Z,7.90
2019-02-10T22:13:37.006Z,8.37
2019-02-10T22:16:05.654Z,9.40
2019-02-10T22:18:34.328Z,8.30
2019-02-10T22:21:03.267Z,8.40
2019-02-10T22:23:32.213Z,9.03
2019-02-10T22:26:00.756Z,8.20
2019-02-10T22:28:29.374Z,8.30
2019-02-10T22:30:58.003Z,8.47
2019-02-10T22:33:26.455Z,8.50
2019-02-10T22:35:55.182Z,8.60
2019-02-10T22:38:23.724Z,8.23
2019-02-10T22:40:52.241Z,8.50
2019-02-10T22:43:20.750Z,8.10
2019-02-10T22:45:49.373Z,12.00
2019-02-10T22:48:18.055Z,8.07
2019-02-10T22:50:46.679Z,8.40
2019-02-10T22:53:15.272Z,8.17
2019-02-10T22:55:43.829Z,7.80
2019-02-10T22:58:12.472Z,8.30
2019-02-10T23:00:50.946Z,8.20
2019-02-10T23:03:19.623Z,10.27
2019-02-10T23:05:48.458Z,8.07
2019-02-10T23:08:17.041Z,8.00
2019-02-10T23:10:45.639Z,8.20
2019-02-10T23:13:14.166Z,8.40
2019-02-10T23:15:42.792Z,8.60
2019-02-10T23:18:11.458Z,9.07
2019-02-10T23:20:40.026Z,8.10
2019-02-10T23:23:09.003Z,8.03
2019-02-10T23:25:37.674Z,8.50
2019-02-10T23:28:06.312Z,8.00
2019-02-10T23:30:35.136Z,8.70
2019-02-10T23:33:03.644Z,8.07
2019-02-10T23:35:32.438Z,7.93
2019-02-10T23:38:01.279Z,8.20
2019-02-10T23:40:29.875Z,8.40
2019-02-10T23:43:02.247Z,8.27
2019-02-10T23:45:29.055Z,8.40
2019-02-10T23:47:57.506Z,7.97
2019-02-10T23:50:26.071Z,8.00
2019-02-10T23:52:54.864Z,8.00
2019-02-10T23:55:23.526Z,8.33
2019-02-10T23:57:52.113Z,8.50
